sensor_id;sensor_type;location;lat;lon;timestamp;P1;durP1;ratioP1;P2;durP2;ratioP2
14326;SDS011;7247;53.330;-1.180;2023-07-30T00:01:22;10.63;;;3.27;;
14326;SDS011;7247;53.330;-1.180;2023-07-30T00:03:48;13.13;;;3.13;;
14326;SDS011;7247;53.330;-1.180;2023-07-30T00:06:15;12.50;;;3.30;;
14326;SDS011;7247;53.330;-1.180;2023-07-30T00:08:41;15.83;;;3.50;;
14326;SDS011;7247;53.330;-1.180;2023-07-30T00:11:09;8.20;;;2.47;;
14326;SDS011;7247;53.330;-1.180;2023-07-30T00:13:37;14.37;;;3.17;;
14326;SDS011;7247;53.330;-1.180;2023-07-30T00:16:03;14.37;;;3.80;;
14326;SDS011;7247;53.330;-1.180;2023-07-30T00:18:30;12.57;;;3.33;;
14326;SDS011;7247;53.330;-1.180;2023-07-30T00:20:56;14.37;;;3.20;;
14326;SDS011;7247;53.330;-1.180;2023-07-30T00:23:23;8.53;;;3.03;;
14326;SDS011;7247;53.330;-1.180;2023-07-30T00:25:49;14.57;;;3.03;;
14326;SDS011;7247;53.330;-1.180;2023-07-30T00:28:17;12.53;;;3.03;;
14326;SDS011;7247;53.330;-1.180;2023-07-30T00:30:43;11.10;;;3.30;;
14326;SDS011;7247;53.330;-1.180;2023-07-30T00:33:10;16.40;;;3.40;;
14326;SDS011;7247;53.330;-1.180;2023-07-30T00:35:36;9.73;;;3.27;;
14326;SDS011;7247;53.330;-1.180;2023-07-30T00:38:03;10.80;;;2.90;;
14326;SDS011;7247;53.330;-1.180;2023-07-30T00:40:29;14.13;;;3.20;;
14326;SDS011;7247;53.330;-1.180;2023-07-30T00:42:56;13.00;;;3.37;;
14326;SDS011;7247;53.330;-1.180;2023-07-30T00:45:23;14.87;;;3.57;;
14326;SDS011;7247;53.330;-1.180;2023-07-30T00:47:50;10.87;;;3.50;;
14326;SDS011;7247;53.330;-1.180;2023-07-30T00:50:16;10.20;;;3.07;;
14326;SDS011;7247;53.330;-1.180;2023-07-30T00:52:43;14.30;;;3.70;;
14326;SDS011;7247;53.330;-1.180;2023-07-30T00:55:10;11.77;;;3.27;;
14326;SDS011;7247;53.330;-1.180;2023-07-30T00:57:37;12.93;;;3.20;;
14326;SDS011;7247;53.330;-1.180;2023-07-30T01:00:03;10.30;;;3.33;;
14326;SDS011;7247;53.330;-1.180;2023-07-30T01:02:32;11.10;;;3.20;;
14326;SDS011;7247;53.330;-1.180;2023-07-30T01:04:58;11.57;;;3.30;;
14326;SDS011;7247;53.330;-1.180;2023-07-30T01:07:28;10.63;;;3.13;;
14326;SDS011;7247;53.330;-1.180;2023-07-30T01:09:54;12.93;;;3.40;;
14326;SDS011;7247;53.330;-1.180;2023-07-30T01:12:21;11.73;;;3.27;;
14326;SDS011;7247;53.330;-1.180;2023-07-30T01:14:48;11.73;;;3.20;;
14326;SDS011;7247;53.330;-1.180;2023-07-30T01:17:15;11.20;;;3.03;;
14326;SDS011;7247;53.330;-1.180;2023-07-30T01:19:43;9.20;;;2.83;;
14326;SDS011;7247;53.330;-1.180;2023-07-30T01:22:11;12.67;;;3.13;;
14326;SDS011;7247;53.330;-1.180;2023-07-30T01:24:37;9.33;;;2.90;;
14326;SDS011;7247;53.330;-1.180;2023-07-30T01:27:05;10.37;;;3.50;;
14326;SDS011;7247;53.330;-1.180;2023-07-30T01:29:33;16.40;;;3.13;;
14326;SDS011;7247;53.330;-1.180;2023-07-30T01:32:02;14.67;;;3.10;;
14326;SDS011;7247;53.330;-1.180;2023-07-30T01:34:28;12.43;;;3.27;;
14326;SDS011;7247;53.330;-1.180;2023-07-30T01:36:56;11.67;;;3.37;;
14326;SDS011;7247;53.330;-1.180;2023-07-30T01:39:25;11.00;;;3.33;;
14326;SDS011;7247;53.330;-1.180;2023-07-30T01:41:52;13.33;;;3.40;;
14326;SDS011;7247;53.330;-1.180;2023-07-30T01:44:19;15.07;;;3.17;;
14326;SDS011;7247;53.330;-1.180;2023-07-30T01:46:45;11.80;;;3.00;;
14326;SDS011;7247;53.330;-1.180;2023-07-30T01:49:12;12.07;;;3.10;;
14326;SDS011;7247;53.330;-1.180;2023-07-30T01:51:38;14.10;;;3.30;;
14326;SDS011;7247;53.330;-1.180;2023-07-30T01:54:05;10.43;;;3.00;;
14326;SDS011;7247;53.330;-1.180;2023-07-30T01:56:32;7.90;;;2.90;;
14326;SDS011;7247;53.330;-1.180;2023-07-30T01:58:59;11.50;;;2.67;;
14326;SDS011;7247;53.330;-1.180;2023-07-30T02:01:25;10.33;;;2.87;;
14326;SDS011;7247;53.330;-1.180;2023-07-30T02:03:51;11.80;;;3.13;;
14326;SDS011;7247;53.330;-1.180;2023-07-30T02:06:18;12.30;;;3.03;;
14326;SDS011;7247;53.330;-1.180;2023-07-30T02:08:44;13.77;;;3.10;;
14326;SDS011;7247;53.330;-1.180;2023-07-30T02:11:11;12.87;;;3.40;;
14326;SDS011;7247;53.330;-1.180;2023-07-30T02:13:39;12.90;;;3.10;;
14326;SDS011;7247;53.330;-1.180;2023-07-30T02:16:05;15.47;;;3.43;;
14326;SDS011;7247;53.330;-1.180;2023-07-30T02:18:31;12.90;;;3.43;;
14326;SDS011;7247;53.330;-1.180;2023-07-30T02:20:58;12.40;;;3.07;;
14326;SDS011;7247;53.330;-1.180;2023-07-30T02:23:24;12.13;;;3.67;;
14326;SDS011;7247;53.330;-1.180;2023-07-30T02:25:50;13.07;;;3.50;;
14326;SDS011;7247;53.330;-1.180;2023-07-30T02:28:17;11.40;;;3.30;;
14326;SDS011;7247;53.330;-1.180;2023-07-30T02:30:45;11.83;;;3.03;;
14326;SDS011;7247;53.330;-1.180;2023-07-30T02:33:11;9.40;;;3.07;;
14326;SDS011;7247;53.330;-1.180;2023-07-30T02:35:37;15.07;;;3.17;;
14326;SDS011;7247;53.330;-1.180;2023-07-30T02:38:04;10.90;;;3.07;;
14326;SDS011;7247;53.330;-1.180;2023-07-30T02:40:30;11.83;;;2.97;;
14326;SDS011;7247;53.330;-1.180;2023-07-30T02:42:57;11.70;;;2.60;;
14326;SDS011;7247;53.330;-1.180;2023-07-30T02:45:23;11.90;;;3.07;;
14326;SDS011;7247;53.330;-1.180;2023-07-30T02:47:51;10.03;;;2.77;;
14326;SDS011;7247;53.330;-1.180;2023-07-30T02:50:17;10.93;;;3.33;;
14326;SDS011;7247;53.330;-1.180;2023-07-30T02:52:44;9.33;;;2.90;;
14326;SDS011;7247;53.330;-1.180;2023-07-30T02:55:10;9.90;;;2.93;;
14326;SDS011;7247;53.330;-1.180;2023-07-30T02:57:37;10.70;;;2.87;;
14326;SDS011;7247;53.330;-1.180;2023-07-30T03:00:03;12.60;;;3.43;;
14326;SDS011;7247;53.330;-1.180;2023-07-30T03:02:30;11.07;;;3.13;;
14326;SDS011;7247;53.330;-1.180;2023-07-30T03:04:58;12.17;;;3.20;;
14326;SDS011;7247;53.330;-1.180;2023-07-30T03:07:24;11.97;;;2.90;;
14326;SDS011;7247;53.330;-1.180;2023-07-30T03:09:51;11.13;;;3.13;;
14326;SDS011;7247;53.330;-1.180;2023-07-30T03:12:17;8.43;;;2.47;;
14326;SDS011;7247;53.330;-1.180;2023-07-30T03:14:44;12.37;;;3.10;;
14326;SDS011;7247;53.330;-1.180;2023-07-30T03:17:10;13.60;;;3.20;;
14326;SDS011;7247;53.330;-1.180;2023-07-30T03:19:37;11.60;;;3.20;;
14326;SDS011;7247;53.330;-1.180;2023-07-30T03:22:04;9.93;;;2.70;;
14326;SDS011;7247;53.330;-1.180;2023-07-30T03:24:31;9.67;;;3.03;;
14326;SDS011;7247;53.330;-1.180;2023-07-30T03:26:57;13.93;;;3.20;;
14326;SDS011;7247;53.330;-1.180;2023-07-30T03:29:24;12.47;;;2.97;;
14326;SDS011;7247;53.330;-1.180;2023-07-30T03:31:50;15.37;;;2.83;;
14326;SDS011;7247;53.330;-1.180;2023-07-30T03:34:16;13.27;;;2.90;;
14326;SDS011;7247;53.330;-1.180;2023-07-30T03:36:43;13.27;;;2.77;;
14326;SDS011;7247;53.330;-1.180;2023-07-30T03:39:11;9.63;;;2.73;;
14326;SDS011;7247;53.330;-1.180;2023-07-30T03:41:37;11.10;;;3.13;;
14326;SDS011;7247;53.330;-1.180;2023-07-30T03:44:03;10.07;;;2.73;;
14326;SDS011;7247;53.330;-1.180;2023-07-30T03:46:30;13.23;;;2.67;;
14326;SDS011;7247;53.330;-1.180;2023-07-30T03:48:56;14.00;;;2.70;;
14326;SDS011;7247;53.330;-1.180;2023-07-30T03:51:23;6.63;;;2.13;;
14326;SDS011;7247;53.330;-1.180;2023-07-30T03:53:49;13.67;;;2.90;;
14326;SDS011;7247;53.330;-1.180;2023-07-30T03:56:17;9.10;;;2.60;;
14326;SDS011;7247;53.330;-1.180;2023-07-30T03:58:43;8.43;;;2.53;;
14326;SDS011;7247;53.330;-1.180;2023-07-30T04:01:10;12.63;;;2.67;;
14326;SDS011;7247;53.330;-1.180;2023-07-30T04:03:36;8.97;;;2.67;;
14326;SDS011;7247;53.330;-1.180;2023-07-30T04:06:02;12.03;;;2.37;;
14326;SDS011;7247;53.330;-1.180;2023-07-30T04:08:29;11.50;;;2.77;;
14326;SDS011;7247;53.330;-1.180;2023-07-30T04:10:55;8.33;;;2.40;;
14326;SDS011;7247;53.330;-1.180;2023-07-30T04:13:23;8.33;;;2.53;;
14326;SDS011;7247;53.330;-1.180;2023-07-30T04:15:49;8.87;;;2.33;;
14326;SDS011;7247;53.330;-1.180;2023-07-30T04:18:16;8.73;;;2.50;;
14326;SDS011;7247;53.330;-1.180;2023-07-30T04:20:42;7.17;;;2.30;;
14326;SDS011;7247;53.330;-1.180;2023-07-30T04:23:09;9.43;;;2.17;;
14326;SDS011;7247;53.330;-1.180;2023-07-30T04:25:35;12.57;;;2.43;;
14326;SDS011;7247;53.330;-1.180;2023-07-30T04:28:01;9.73;;;2.40;;
14326;SDS011;7247;53.330;-1.180;2023-07-30T04:30:29;7.13;;;2.17;;
14326;SDS011;7247;53.330;-1.180;2023-07-30T04:32:56;6.10;;;2.30;;
14326;SDS011;7247;53.330;-1.180;2023-07-30T04:35:22;8.27;;;2.23;;
14326;SDS011;7247;53.330;-1.180;2023-07-30T04:37:48;8.83;;;2.27;;
14326;SDS011;7247;53.330;-1.180;2023-07-30T04:40:15;9.57;;;2.67;;
14326;SDS011;7247;53.330;-1.180;2023-07-30T04:42:41;7.17;;;1.90;;
14326;SDS011;7247;53.330;-1.180;2023-07-30T04:45:08;9.30;;;2.40;;
14326;SDS011;7247;53.330;-1.180;2023-07-30T04:47:36;9.63;;;2.40;;
14326;SDS011;7247;53.330;-1.180;2023-07-30T04:50:03;6.07;;;2.00;;
14326;SDS011;7247;53.330;-1.180;2023-07-30T04:52:29;8.83;;;2.30;;
14326;SDS011;7247;53.330;-1.180;2023-07-30T04:54:55;7.30;;;2.10;;
14326;SDS011;7247;53.330;-1.180;2023-07-30T04:57:22;8.13;;;2.53;;
14326;SDS011;7247;53.330;-1.180;2023-07-30T04:59:48;6.80;;;1.87;;
14326;SDS011;7247;53.330;-1.180;2023-07-30T05:02:15;7.93;;;2.37;;
14326;SDS011;7247;53.330;-1.180;2023-07-30T05:04:42;8.00;;;2.30;;
14326;SDS011;7247;53.330;-1.180;2023-07-30T05:07:09;9.27;;;2.40;;
14326;SDS011;7247;53.330;-1.180;2023-07-30T05:09:35;7.50;;;2.03;;
14326;SDS011;7247;53.330;-1.180;2023-07-30T05:12:02;6.37;;;2.20;;
14326;SDS011;7247;53.330;-1.180;2023-07-30T05:14:28;8.50;;;2.10;;
14326;SDS011;7247;53.330;-1.180;2023-07-30T05:16:55;7.60;;;2.33;;
14326;SDS011;7247;53.330;-1.180;2023-07-30T05:19:22;7.27;;;1.90;;
14326;SDS011;7247;53.330;-1.180;2023-07-30T05:21:49;6.77;;;1.80;;
14326;SDS011;7247;53.330;-1.180;2023-07-30T05:24:16;5.50;;;2.00;;
14326;SDS011;7247;53.330;-1.180;2023-07-30T05:26:42;4.93;;;1.87;;
14326;SDS011;7247;53.330;-1.180;2023-07-30T05:29:09;4.00;;;1.53;;
14326;SDS011;7247;53.330;-1.180;2023-07-30T05:31:35;5.63;;;1.83;;
14326;SDS011;7247;53.330;-1.180;2023-07-30T05:34:01;5.30;;;1.60;;
14326;SDS011;7247;53.330;-1.180;2023-07-30T05:36:28;7.37;;;1.93;;
14326;SDS011;7247;53.330;-1.180;2023-07-30T05:38:56;5.33;;;1.67;;
14326;SDS011;7247;53.330;-1.180;2023-07-30T05:41:22;5.23;;;1.63;;
14326;SDS011;7247;53.330;-1.180;2023-07-30T05:43:48;5.03;;;1.80;;
14326;SDS011;7247;53.330;-1.180;2023-07-30T05:46:15;8.93;;;1.73;;
14326;SDS011;7247;53.330;-1.180;2023-07-30T05:48:41;6.77;;;2.13;;
14326;SDS011;7247;53.330;-1.180;2023-07-30T05:51:08;5.27;;;1.60;;
14326;SDS011;7247;53.330;-1.180;2023-07-30T05:53:34;4.87;;;1.70;;
14326;SDS011;7247;53.330;-1.180;2023-07-30T05:56:02;5.87;;;1.90;;
14326;SDS011;7247;53.330;-1.180;2023-07-30T05:58:28;5.43;;;1.80;;
14326;SDS011;7247;53.330;-1.180;2023-07-30T06:00:55;5.57;;;1.90;;
14326;SDS011;7247;53.330;-1.180;2023-07-30T06:03:22;4.27;;;1.60;;
14326;SDS011;7247;53.330;-1.180;2023-07-30T06:05:48;5.27;;;1.83;;
14326;SDS011;7247;53.330;-1.180;2023-07-30T06:08:15;6.27;;;2.00;;
14326;SDS011;7247;53.330;-1.180;2023-07-30T06:10:41;4.67;;;1.83;;
14326;SDS011;7247;53.330;-1.180;2023-07-30T06:13:09;6.43;;;1.93;;
14326;SDS011;7247;53.330;-1.180;2023-07-30T06:15:35;7.10;;;1.90;;
14326;SDS011;7247;53.330;-1.180;2023-07-30T06:18:02;8.90;;;2.03;;
14326;SDS011;7247;53.330;-1.180;2023-07-30T06:20:28;7.40;;;1.80;;
14326;SDS011;7247;53.330;-1.180;2023-07-30T06:22:55;6.47;;;1.90;;
14326;SDS011;7247;53.330;-1.180;2023-07-30T06:25:21;7.07;;;1.70;;
14326;SDS011;7247;53.330;-1.180;2023-07-30T06:27:48;8.33;;;1.93;;
14326;SDS011;7247;53.330;-1.180;2023-07-30T06:30:16;4.60;;;1.70;;
14326;SDS011;7247;53.330;-1.180;2023-07-30T06:32:42;9.10;;;2.17;;
14326;SDS011;7247;53.330;-1.180;2023-07-30T06:35:09;4.93;;;1.60;;
14326;SDS011;7247;53.330;-1.180;2023-07-30T06:37:35;5.33;;;1.63;;
14326;SDS011;7247;53.330;-1.180;2023-07-30T06:40:02;7.83;;;2.10;;
14326;SDS011;7247;53.330;-1.180;2023-07-30T06:42:31;5.50;;;1.60;;
14326;SDS011;7247;53.330;-1.180;2023-07-30T06:44:57;5.13;;;1.73;;
14326;SDS011;7247;53.330;-1.180;2023-07-30T06:47:25;5.53;;;1.80;;
14326;SDS011;7247;53.330;-1.180;2023-07-30T06:49:51;7.43;;;1.70;;
14326;SDS011;7247;53.330;-1.180;2023-07-30T06:52:18;5.70;;;1.90;;
14326;SDS011;7247;53.330;-1.180;2023-07-30T06:54:45;4.27;;;1.80;;
14326;SDS011;7247;53.330;-1.180;2023-07-30T06:57:11;5.03;;;1.47;;
14326;SDS011;7247;53.330;-1.180;2023-07-30T06:59:38;5.90;;;1.67;;
14326;SDS011;7247;53.330;-1.180;2023-07-30T07:02:04;5.37;;;1.70;;
14326;SDS011;7247;53.330;-1.180;2023-07-30T07:04:32;5.80;;;1.80;;
14326;SDS011;7247;53.330;-1.180;2023-07-30T07:06:59;6.47;;;1.80;;
14326;SDS011;7247;53.330;-1.180;2023-07-30T07:09:28;5.43;;;1.80;;
14326;SDS011;7247;53.330;-1.180;2023-07-30T07:11:54;4.73;;;1.80;;
14326;SDS011;7247;53.330;-1.180;2023-07-30T07:14:21;6.53;;;1.90;;
14326;SDS011;7247;53.330;-1.180;2023-07-30T07:16:47;6.70;;;1.80;;
14326;SDS011;7247;53.330;-1.180;2023-07-30T07:19:14;6.50;;;1.87;;
14326;SDS011;7247;53.330;-1.180;2023-07-30T07:21:42;6.00;;;2.00;;
14326;SDS011;7247;53.330;-1.180;2023-07-30T07:24:10;6.77;;;1.80;;
14326;SDS011;7247;53.330;-1.180;2023-07-30T07:26:37;6.30;;;1.63;;
14326;SDS011;7247;53.330;-1.180;2023-07-30T07:29:04;6.73;;;1.70;;
14326;SDS011;7247;53.330;-1.180;2023-07-30T07:31:31;5.37;;;1.93;;
14326;SDS011;7247;53.330;-1.180;2023-07-30T07:33:57;7.40;;;1.60;;
14326;SDS011;7247;53.330;-1.180;2023-07-30T07:36:24;4.53;;;1.60;;
14326;SDS011;7247;53.330;-1.180;2023-07-30T07:38:51;6.00;;;1.80;;
14326;SDS011;7247;53.330;-1.180;2023-07-30T07:41:17;4.13;;;1.60;;
14326;SDS011;7247;53.330;-1.180;2023-07-30T07:43:44;3.87;;;1.63;;
14326;SDS011;7247;53.330;-1.180;2023-07-30T07:46:10;5.40;;;1.90;;
14326;SDS011;7247;53.330;-1.180;2023-07-30T07:48:39;5.13;;;1.80;;
14326;SDS011;7247;53.330;-1.180;2023-07-30T07:51:06;3.23;;;1.50;;
14326;SDS011;7247;53.330;-1.180;2023-07-30T07:53:32;5.47;;;1.80;;
14326;SDS011;7247;53.330;-1.180;2023-07-30T07:56:00;4.43;;;1.77;;
14326;SDS011;7247;53.330;-1.180;2023-07-30T07:58:27;6.03;;;1.70;;
14326;SDS011;7247;53.330;-1.180;2023-07-30T08:00:54;6.73;;;1.90;;
14326;SDS011;7247;53.330;-1.180;2023-07-30T08:03:20;6.07;;;1.33;;
14326;SDS011;7247;53.330;-1.180;2023-07-30T08:05:47;9.00;;;1.90;;
14326;SDS011;7247;53.330;-1.180;2023-07-30T08:08:13;4.40;;;1.60;;
14326;SDS011;7247;53.330;-1.180;2023-07-30T08:10:40;4.73;;;1.33;;
14326;SDS011;7247;53.330;-1.180;2023-07-30T08:13:10;3.10;;;1.40;;
14326;SDS011;7247;53.330;-1.180;2023-07-30T08:15:36;3.10;;;1.40;;
14326;SDS011;7247;53.330;-1.180;2023-07-30T08:18:03;6.10;;;1.60;;
14326;SDS011;7247;53.330;-1.180;2023-07-30T08:20:29;2.97;;;1.50;;
14326;SDS011;7247;53.330;-1.180;2023-07-30T08:22:55;2.93;;;1.40;;
14326;SDS011;7247;53.330;-1.180;2023-07-30T08:25:22;3.63;;;1.40;;
14326;SDS011;7247;53.330;-1.180;2023-07-30T08:27:48;5.60;;;1.40;;
14326;SDS011;7247;53.330;-1.180;2023-07-30T08:30:16;5.47;;;1.60;;
14326;SDS011;7247;53.330;-1.180;2023-07-30T08:32:42;5.77;;;1.80;;
14326;SDS011;7247;53.330;-1.180;2023-07-30T08:35:09;2.63;;;1.10;;
14326;SDS011;7247;53.330;-1.180;2023-07-30T08:37:36;4.20;;;1.60;;
14326;SDS011;7247;53.330;-1.180;2023-07-30T08:40:02;5.17;;;1.70;;
14326;SDS011;7247;53.330;-1.180;2023-07-30T08:42:29;3.93;;;1.80;;
14326;SDS011;7247;53.330;-1.180;2023-07-30T08:44:55;3.87;;;1.43;;
14326;SDS011;7247;53.330;-1.180;2023-07-30T08:47:23;5.40;;;1.60;;
14326;SDS011;7247;53.330;-1.180;2023-07-30T08:49:50;7.63;;;2.23;;
14326;SDS011;7247;53.330;-1.180;2023-07-30T08:52:16;2.67;;;1.30;;
14326;SDS011;7247;53.330;-1.180;2023-07-30T08:54:43;3.80;;;1.60;;
14326;SDS011;7247;53.330;-1.180;2023-07-30T08:57:10;4.10;;;1.33;;
14326;SDS011;7247;53.330;-1.180;2023-07-30T08:59:37;3.97;;;1.37;;
14326;SDS011;7247;53.330;-1.180;2023-07-30T09:02:05;4.30;;;1.47;;
14326;SDS011;7247;53.330;-1.180;2023-07-30T09:04:35;3.47;;;1.37;;
14326;SDS011;7247;53.330;-1.180;2023-07-30T09:07:03;3.40;;;1.40;;
14326;SDS011;7247;53.330;-1.180;2023-07-30T09:09:30;1.77;;;1.20;;
14326;SDS011;7247;53.330;-1.180;2023-07-30T09:11:56;3.33;;;1.30;;
14326;SDS011;7247;53.330;-1.180;2023-07-30T09:14:25;3.07;;;1.30;;
14326;SDS011;7247;53.330;-1.180;2023-07-30T09:16:56;3.40;;;1.63;;
14326;SDS011;7247;53.330;-1.180;2023-07-30T09:19:22;3.17;;;1.40;;
14326;SDS011;7247;53.330;-1.180;2023-07-30T09:21:50;4.67;;;1.50;;
14326;SDS011;7247;53.330;-1.180;2023-07-30T09:24:20;4.33;;;1.50;;
14326;SDS011;7247;53.330;-1.180;2023-07-30T09:26:46;3.67;;;1.40;;
14326;SDS011;7247;53.330;-1.180;2023-07-30T09:29:13;5.17;;;1.70;;
14326;SDS011;7247;53.330;-1.180;2023-07-30T09:31:43;5.70;;;1.27;;
14326;SDS011;7247;53.330;-1.180;2023-07-30T09:34:14;6.30;;;1.60;;
14326;SDS011;7247;53.330;-1.180;2023-07-30T09:36:41;3.27;;;1.50;;
14326;SDS011;7247;53.330;-1.180;2023-07-30T09:39:15;5.53;;;1.60;;
14326;SDS011;7247;53.330;-1.180;2023-07-30T09:41:42;4.27;;;1.50;;
14326;SDS011;7247;53.330;-1.180;2023-07-30T09:44:08;5.47;;;1.60;;
14326;SDS011;7247;53.330;-1.180;2023-07-30T09:46:40;7.53;;;1.50;;
14326;SDS011;7247;53.330;-1.180;2023-07-30T09:49:08;6.17;;;1.30;;
14326;SDS011;7247;53.330;-1.180;2023-07-30T09:51:34;3.10;;;1.57;;
14326;SDS011;7247;53.330;-1.180;2023-07-30T09:54:02;5.07;;;1.50;;
14326;SDS011;7247;53.330;-1.180;2023-07-30T09:56:30;3.60;;;1.40;;
14326;SDS011;7247;53.330;-1.180;2023-07-30T09:58:57;3.83;;;1.40;;
14326;SDS011;7247;53.330;-1.180;2023-07-30T10:01:23;3.00;;;1.37;;
14326;SDS011;7247;53.330;-1.180;2023-07-30T10:03:52;2.33;;;1.10;;
14326;SDS011;7247;53.330;-1.180;2023-07-30T10:06:19;3.30;;;1.20;;
14326;SDS011;7247;53.330;-1.180;2023-07-30T10:08:48;4.37;;;1.30;;
14326;SDS011;7247;53.330;-1.180;2023-07-30T10:11:15;2.83;;;1.50;;
14326;SDS011;7247;53.330;-1.180;2023-07-30T10:13:43;3.60;;;1.20;;
14326;SDS011;7247;53.330;-1.180;2023-07-30T10:16:10;4.63;;;1.50;;
14326;SDS011;7247;53.330;-1.180;2023-07-30T10:18:37;5.33;;;1.40;;
14326;SDS011;7247;53.330;-1.180;2023-07-30T10:21:04;3.27;;;1.40;;
14326;SDS011;7247;53.330;-1.180;2023-07-30T10:23:33;2.03;;;1.30;;
14326;SDS011;7247;53.330;-1.180;2023-07-30T10:26:01;1.97;;;1.33;;
14326;SDS011;7247;53.330;-1.180;2023-07-30T10:28:34;3.43;;;1.00;;
14326;SDS011;7247;53.330;-1.180;2023-07-30T10:31:05;2.73;;;1.17;;
14326;SDS011;7247;53.330;-1.180;2023-07-30T10:33:46;2.87;;;1.20;;
14326;SDS011;7247;53.330;-1.180;2023-07-30T10:36:12;3.27;;;1.17;;
14326;SDS011;7247;53.330;-1.180;2023-07-30T10:38:39;3.43;;;1.20;;
14326;SDS011;7247;53.330;-1.180;2023-07-30T10:41:07;2.80;;;1.30;;
14326;SDS011;7247;53.330;-1.180;2023-07-30T10:43:34;3.20;;;1.13;;
14326;SDS011;7247;53.330;-1.180;2023-07-30T10:46:01;3.30;;;1.23;;
14326;SDS011;7247;53.330;-1.180;2023-07-30T10:48:33;2.30;;;1.00;;
14326;SDS011;7247;53.330;-1.180;2023-07-30T10:51:00;4.67;;;1.30;;
14326;SDS011;7247;53.330;-1.180;2023-07-30T10:53:27;3.57;;;1.40;;
14326;SDS011;7247;53.330;-1.180;2023-07-30T10:55:53;4.13;;;0.90;;
14326;SDS011;7247;53.330;-1.180;2023-07-30T10:58:24;2.53;;;1.03;;
14326;SDS011;7247;53.330;-1.180;2023-07-30T11:00:52;2.73;;;1.13;;
14326;SDS011;7247;53.330;-1.180;2023-07-30T11:03:18;1.83;;;1.00;;
14326;SDS011;7247;53.330;-1.180;2023-07-30T11:05:47;3.13;;;1.00;;
14326;SDS011;7247;53.330;-1.180;2023-07-30T11:08:14;3.40;;;1.17;;
14326;SDS011;7247;53.330;-1.180;2023-07-30T11:10:43;2.90;;;1.03;;
14326;SDS011;7247;53.330;-1.180;2023-07-30T11:13:11;1.90;;;1.00;;
14326;SDS011;7247;53.330;-1.180;2023-07-30T11:15:41;2.23;;;1.13;;
14326;SDS011;7247;53.330;-1.180;2023-07-30T11:18:08;4.80;;;1.33;;
14326;SDS011;7247;53.330;-1.180;2023-07-30T11:20:35;2.80;;;1.20;;
14326;SDS011;7247;53.330;-1.180;2023-07-30T11:23:03;2.30;;;1.00;;
14326;SDS011;7247;53.330;-1.180;2023-07-30T11:25:45;3.17;;;0.90;;
14326;SDS011;7247;53.330;-1.180;2023-07-30T11:28:11;2.20;;;0.80;;
14326;SDS011;7247;53.330;-1.180;2023-07-30T11:30:38;2.00;;;1.10;;
14326;SDS011;7247;53.330;-1.180;2023-07-30T11:33:04;1.67;;;1.20;;
14326;SDS011;7247;53.330;-1.180;2023-07-30T11:35:31;2.30;;;1.10;;
14326;SDS011;7247;53.330;-1.180;2023-07-30T11:37:57;3.93;;;1.10;;
14326;SDS011;7247;53.330;-1.180;2023-07-30T11:40:25;2.93;;;1.17;;
14326;SDS011;7247;53.330;-1.180;2023-07-30T11:42:51;2.20;;;1.03;;
14326;SDS011;7247;53.330;-1.180;2023-07-30T11:45:18;3.90;;;1.17;;
14326;SDS011;7247;53.330;-1.180;2023-07-30T11:47:45;3.03;;;1.00;;
14326;SDS011;7247;53.330;-1.180;2023-07-30T11:50:12;2.87;;;1.10;;
14326;SDS011;7247;53.330;-1.180;2023-07-30T11:52:50;3.27;;;0.90;;
14326;SDS011;7247;53.330;-1.180;2023-07-30T11:55:17;2.50;;;1.10;;
14326;SDS011;7247;53.330;-1.180;2023-07-30T11:57:46;2.50;;;1.10;;
14326;SDS011;7247;53.330;-1.180;2023-07-30T12:00:12;2.53;;;0.87;;
14326;SDS011;7247;53.330;-1.180;2023-07-30T12:02:39;3.47;;;1.10;;
14326;SDS011;7247;53.330;-1.180;2023-07-30T12:05:06;3.27;;;1.10;;
14326;SDS011;7247;53.330;-1.180;2023-07-30T12:07:32;5.03;;;1.10;;
14326;SDS011;7247;53.330;-1.180;2023-07-30T12:10:06;2.70;;;1.00;;
14326;SDS011;7247;53.330;-1.180;2023-07-30T12:12:32;1.97;;;1.00;;
14326;SDS011;7247;53.330;-1.180;2023-07-30T12:15:00;1.53;;;0.80;;
14326;SDS011;7247;53.330;-1.180;2023-07-30T12:17:27;5.30;;;4.20;;
14326;SDS011;7247;53.330;-1.180;2023-07-30T12:19:53;2.90;;;1.80;;
14326;SDS011;7247;53.330;-1.180;2023-07-30T12:22:19;5.00;;;1.20;;
14326;SDS011;7247;53.330;-1.180;2023-07-30T12:24:46;1.83;;;0.90;;
14326;SDS011;7247;53.330;-1.180;2023-07-30T12:27:12;1.73;;;0.80;;
14326;SDS011;7247;53.330;-1.180;2023-07-30T12:29:39;1.20;;;0.73;;
14326;SDS011;7247;53.330;-1.180;2023-07-30T12:32:07;2.13;;;0.80;;
14326;SDS011;7247;53.330;-1.180;2023-07-30T12:34:33;2.70;;;0.90;;
14326;SDS011;7247;53.330;-1.180;2023-07-30T12:37:00;6.17;;;1.00;;
14326;SDS011;7247;53.330;-1.180;2023-07-30T12:39:26;3.17;;;1.00;;
14326;SDS011;7247;53.330;-1.180;2023-07-30T12:41:53;3.70;;;1.57;;
14326;SDS011;7247;53.330;-1.180;2023-07-30T12:44:19;1.70;;;1.10;;
14326;SDS011;7247;53.330;-1.180;2023-07-30T12:46:46;2.43;;;1.27;;
14326;SDS011;7247;53.330;-1.180;2023-07-30T12:49:14;2.30;;;0.90;;
14326;SDS011;7247;53.330;-1.180;2023-07-30T12:51:40;2.73;;;0.93;;
14326;SDS011;7247;53.330;-1.180;2023-07-30T12:54:07;1.80;;;1.07;;
14326;SDS011;7247;53.330;-1.180;2023-07-30T12:56:33;3.90;;;1.00;;
14326;SDS011;7247;53.330;-1.180;2023-07-30T12:58:59;1.87;;;0.90;;
14326;SDS011;7247;53.330;-1.180;2023-07-30T13:01:26;3.40;;;1.30;;
14326;SDS011;7247;53.330;-1.180;2023-07-30T13:03:53;3.20;;;1.20;;
14326;SDS011;7247;53.330;-1.180;2023-07-30T13:06:21;3.63;;;1.00;;
14326;SDS011;7247;53.330;-1.180;2023-07-30T13:08:47;2.93;;;1.00;;
14326;SDS011;7247;53.330;-1.180;2023-07-30T13:11:14;2.17;;;1.00;;
14326;SDS011;7247;53.330;-1.180;2023-07-30T13:13:40;5.07;;;1.20;;
14326;SDS011;7247;53.330;-1.180;2023-07-30T13:16:06;1.33;;;0.90;;
14326;SDS011;7247;53.330;-1.180;2023-07-30T13:18:33;6.30;;;1.30;;
14326;SDS011;7247;53.330;-1.180;2023-07-30T13:20:59;3.67;;;1.20;;
14326;SDS011;7247;53.330;-1.180;2023-07-30T13:23:27;3.73;;;1.10;;
14326;SDS011;7247;53.330;-1.180;2023-07-30T13:25:54;4.57;;;1.17;;
14326;SDS011;7247;53.330;-1.180;2023-07-30T13:28:20;3.00;;;1.00;;
14326;SDS011;7247;53.330;-1.180;2023-07-30T13:30:56;6.40;;;1.10;;
14326;SDS011;7247;53.330;-1.180;2023-07-30T13:33:23;3.30;;;0.90;;
14326;SDS011;7247;53.330;-1.180;2023-07-30T13:35:49;4.57;;;1.30;;
14326;SDS011;7247;53.330;-1.180;2023-07-30T13:38:15;3.27;;;0.97;;
14326;SDS011;7247;53.330;-1.180;2023-07-30T13:40:42;3.20;;;1.33;;
14326;SDS011;7247;53.330;-1.180;2023-07-30T13:43:08;3.67;;;1.30;;
14326;SDS011;7247;53.330;-1.180;2023-07-30T13:45:35;2.40;;;1.20;;
14326;SDS011;7247;53.330;-1.180;2023-07-30T13:48:02;4.00;;;1.20;;
14326;SDS011;7247;53.330;-1.180;2023-07-30T13:50:29;2.13;;;1.03;;
14326;SDS011;7247;53.330;-1.180;2023-07-30T13:52:55;3.10;;;1.20;;
14326;SDS011;7247;53.330;-1.180;2023-07-30T13:55:22;5.37;;;1.50;;
14326;SDS011;7247;53.330;-1.180;2023-07-30T13:57:48;4.10;;;1.40;;
14326;SDS011;7247;53.330;-1.180;2023-07-30T14:00:14;3.27;;;1.40;;
14326;SDS011;7247;53.330;-1.180;2023-07-30T14:02:41;4.57;;;1.20;;
14326;SDS011;7247;53.330;-1.180;2023-07-30T14:05:10;1.67;;;1.17;;
14326;SDS011;7247;53.330;-1.180;2023-07-30T14:07:36;2.20;;;1.40;;
14326;SDS011;7247;53.330;-1.180;2023-07-30T14:10:03;7.87;;;1.47;;
14326;SDS011;7247;53.330;-1.180;2023-07-30T14:12:29;3.83;;;1.27;;
14326;SDS011;7247;53.330;-1.180;2023-07-30T14:14:56;4.93;;;1.40;;
14326;SDS011;7247;53.330;-1.180;2023-07-30T14:17:22;3.83;;;1.50;;
14326;SDS011;7247;53.330;-1.180;2023-07-30T14:19:48;7.50;;;1.90;;
14326;SDS011;7247;53.330;-1.180;2023-07-30T14:22:16;2.83;;;1.47;;
14326;SDS011;7247;53.330;-1.180;2023-07-30T14:24:43;5.57;;;1.60;;
14326;SDS011;7247;53.330;-1.180;2023-07-30T14:27:10;3.77;;;1.60;;
14326;SDS011;7247;53.330;-1.180;2023-07-30T14:29:36;5.57;;;1.50;;
14326;SDS011;7247;53.330;-1.180;2023-07-30T14:32:03;3.63;;;1.57;;
14326;SDS011;7247;53.330;-1.180;2023-07-30T14:34:29;2.47;;;1.50;;
14326;SDS011;7247;53.330;-1.180;2023-07-30T14:36:55;3.80;;;1.40;;
14326;SDS011;7247;53.330;-1.180;2023-07-30T14:39:23;5.57;;;1.57;;
14326;SDS011;7247;53.330;-1.180;2023-07-30T14:41:50;3.87;;;1.60;;
14326;SDS011;7247;53.330;-1.180;2023-07-30T14:44:16;3.50;;;1.70;;